sensor_id;sensor_type;location;lat;lon;timestamp;P1;durP1;ratioP1;P2;durP2;ratioP2
38132;SDS011;23948;43.252;26.572;2023-05-29T00:00:18;17.25;;;13.82;;
38132;SDS011;23948;43.252;26.572;2023-05-29T00:02:45;16.90;;;13.35;;
38132;SDS011;23948;43.252;26.572;2023-05-29T00:05:11;15.45;;;13.57;;
38132;SDS011;23948;43.252;26.572;2023-05-29T00:07:37;16.10;;;12.93;;
38132;SDS011;23948;43.252;26.572;2023-05-29T00:10:03;15.68;;;13.45;;
38132;SDS011;23948;43.252;26.572;2023-05-29T00:12:29;18.17;;;13.38;;
38132;SDS011;23948;43.252;26.572;2023-05-29T00:14:54;18.00;;;13.88;;
38132;SDS011;23948;43.252;26.572;2023-05-29T00:17:20;17.27;;;13.95;;
38132;SDS011;23948;43.252;26.572;2023-05-29T00:19:45;18.27;;;13.20;;
38132;SDS011;23948;43.252;26.572;2023-05-29T00:22:11;16.95;;;14.50;;
38132;SDS011;23948;43.252;26.572;2023-05-29T00:24:36;17.65;;;14.40;;
38132;SDS011;23948;43.252;26.572;2023-05-29T00:27:01;16.95;;;14.65;;
38132;SDS011;23948;43.252;26.572;2023-05-29T00:29:27;17.73;;;14.80;;
38132;SDS011;23948;43.252;26.572;2023-05-29T00:31:52;16.80;;;14.93;;
38132;SDS011;23948;43.252;26.572;2023-05-29T00:34:18;17.00;;;13.93;;
38132;SDS011;23948;43.252;26.572;2023-05-29T00:36:44;20.05;;;14.23;;
38132;SDS011;23948;43.252;26.572;2023-05-29T00:39:10;15.60;;;13.90;;
38132;SDS011;23948;43.252;26.572;2023-05-29T00:41:35;16.02;;;13.48;;
38132;SDS011;23948;43.252;26.572;2023-05-29T00:44:00;18.25;;;13.90;;
38132;SDS011;23948;43.252;26.572;2023-05-29T00:46:26;17.63;;;14.77;;
38132;SDS011;23948;43.252;26.572;2023-05-29T00:48:51;19.35;;;14.88;;
38132;SDS011;23948;43.252;26.572;2023-05-29T00:51:18;19.55;;;15.25;;
38132;SDS011;23948;43.252;26.572;2023-05-29T00:53:43;21.05;;;15.25;;
38132;SDS011;23948;43.252;26.572;2023-05-29T00:56:09;17.52;;;14.88;;
38132;SDS011;23948;43.252;26.572;2023-05-29T00:58:35;20.85;;;16.90;;
38132;SDS011;23948;43.252;26.572;2023-05-29T01:01:01;20.42;;;16.38;;
38132;SDS011;23948;43.252;26.572;2023-05-29T01:03:28;16.98;;;14.13;;
38132;SDS011;23948;43.252;26.572;2023-05-29T01:05:53;18.92;;;15.77;;
38132;SDS011;23948;43.252;26.572;2023-05-29T01:08:19;18.00;;;15.65;;
38132;SDS011;23948;43.252;26.572;2023-05-29T01:10:45;18.20;;;15.40;;
38132;SDS011;23948;43.252;26.572;2023-05-29T01:13:19;19.85;;;15.57;;
38132;SDS011;23948;43.252;26.572;2023-05-29T01:18:51;18.98;;;15.93;;
38132;SDS011;23948;43.252;26.572;2023-05-29T01:21:37;20.25;;;16.30;;
38132;SDS011;23948;43.252;26.572;2023-05-29T01:29:21;21.48;;;17.15;;
38132;SDS011;23948;43.252;26.572;2023-05-29T01:31:48;24.95;;;17.35;;
38132;SDS011;23948;43.252;26.572;2023-05-29T01:34:14;23.33;;;17.73;;
38132;SDS011;23948;43.252;26.572;2023-05-29T01:36:39;21.05;;;18.33;;
38132;SDS011;23948;43.252;26.572;2023-05-29T01:39:04;25.08;;;18.20;;
38132;SDS011;23948;43.252;26.572;2023-05-29T01:41:30;24.15;;;17.65;;
38132;SDS011;23948;43.252;26.572;2023-05-29T01:43:57;20.92;;;17.33;;
38132;SDS011;23948;43.252;26.572;2023-05-29T01:46:23;23.55;;;18.48;;
38132;SDS011;23948;43.252;26.572;2023-05-29T01:48:50;20.90;;;18.65;;
38132;SDS011;23948;43.252;26.572;2023-05-29T01:51:16;24.23;;;18.98;;
38132;SDS011;23948;43.252;26.572;2023-05-29T01:53:41;30.23;;;19.27;;
38132;SDS011;23948;43.252;26.572;2023-05-29T01:56:07;24.17;;;17.70;;
38132;SDS011;23948;43.252;26.572;2023-05-29T01:58:37;23.83;;;19.20;;
38132;SDS011;23948;43.252;26.572;2023-05-29T02:01:02;22.27;;;18.25;;
38132;SDS011;23948;43.252;26.572;2023-05-29T02:03:31;25.02;;;20.08;;
38132;SDS011;23948;43.252;26.572;2023-05-29T02:05:57;23.58;;;18.13;;
38132;SDS011;23948;43.252;26.572;2023-05-29T02:08:22;23.20;;;16.77;;
38132;SDS011;23948;43.252;26.572;2023-05-29T02:10:47;22.00;;;18.27;;
38132;SDS011;23948;43.252;26.572;2023-05-29T02:13:13;23.50;;;18.23;;
38132;SDS011;23948;43.252;26.572;2023-05-29T02:15:38;25.63;;;18.23;;
38132;SDS011;23948;43.252;26.572;2023-05-29T02:18:03;20.75;;;16.85;;
38132;SDS011;23948;43.252;26.572;2023-05-29T02:20:28;22.48;;;15.75;;
38132;SDS011;23948;43.252;26.572;2023-05-29T02:22:54;24.73;;;16.48;;
38132;SDS011;23948;43.252;26.572;2023-05-29T02:25:19;20.63;;;16.08;;
38132;SDS011;23948;43.252;26.572;2023-05-29T02:27:44;20.85;;;17.23;;
38132;SDS011;23948;43.252;26.572;2023-05-29T02:30:10;23.65;;;16.65;;
38132;SDS011;23948;43.252;26.572;2023-05-29T02:32:36;21.40;;;17.55;;
38132;SDS011;23948;43.252;26.572;2023-05-29T02:35:01;21.92;;;16.55;;
38132;SDS011;23948;43.252;26.572;2023-05-29T02:37:27;24.17;;;18.15;;
38132;SDS011;23948;43.252;26.572;2023-05-29T02:39:53;23.30;;;17.20;;
38132;SDS011;23948;43.252;26.572;2023-05-29T02:42:18;22.38;;;18.15;;
38132;SDS011;23948;43.252;26.572;2023-05-29T02:44:43;26.98;;;17.52;;
38132;SDS011;23948;43.252;26.572;2023-05-29T02:47:09;25.98;;;18.63;;
38132;SDS011;23948;43.252;26.572;2023-05-29T02:49:34;22.23;;;16.95;;
38132;SDS011;23948;43.252;26.572;2023-05-29T02:51:59;22.70;;;16.98;;
38132;SDS011;23948;43.252;26.572;2023-05-29T02:54:24;21.42;;;17.58;;
38132;SDS011;23948;43.252;26.572;2023-05-29T02:56:53;25.38;;;17.90;;
38132;SDS011;23948;43.252;26.572;2023-05-29T02:59:18;22.20;;;18.05;;
38132;SDS011;23948;43.252;26.572;2023-05-29T03:01:44;25.85;;;18.35;;
38132;SDS011;23948;43.252;26.572;2023-05-29T03:04:10;25.17;;;17.80;;
38132;SDS011;23948;43.252;26.572;2023-05-29T03:06:36;24.73;;;17.15;;
38132;SDS011;23948;43.252;26.572;2023-05-29T03:09:02;21.30;;;17.45;;
38132;SDS011;23948;43.252;26.572;2023-05-29T03:11:27;21.90;;;18.33;;
38132;SDS011;23948;43.252;26.572;2023-05-29T03:13:54;22.67;;;18.83;;
38132;SDS011;23948;43.252;26.572;2023-05-29T03:16:19;23.10;;;16.38;;
38132;SDS011;23948;43.252;26.572;2023-05-29T03:18:44;25.90;;;17.90;;
38132;SDS011;23948;43.252;26.572;2023-05-29T03:21:10;21.83;;;18.13;;
38132;SDS011;23948;43.252;26.572;2023-05-29T03:23:35;24.52;;;19.02;;
38132;SDS011;23948;43.252;26.572;2023-05-29T03:26:01;23.92;;;19.42;;
38132;SDS011;23948;43.252;26.572;2023-05-29T03:28:27;21.73;;;18.05;;
38132;SDS011;23948;43.252;26.572;2023-05-29T03:30:52;20.52;;;17.63;;
38132;SDS011;23948;43.252;26.572;2023-05-29T03:33:17;25.23;;;18.00;;
38132;SDS011;23948;43.252;26.572;2023-05-29T03:35:42;20.67;;;17.90;;
38132;SDS011;23948;43.252;26.572;2023-05-29T03:38:08;24.10;;;18.38;;
38132;SDS011;23948;43.252;26.572;2023-05-29T03:40:33;21.17;;;17.65;;
38132;SDS011;23948;43.252;26.572;2023-05-29T03:42:58;26.48;;;18.92;;
38132;SDS011;23948;43.252;26.572;2023-05-29T03:45:23;24.67;;;19.35;;
38132;SDS011;23948;43.252;26.572;2023-05-29T03:47:49;25.52;;;18.55;;
38132;SDS011;23948;43.252;26.572;2023-05-29T03:50:15;22.55;;;18.55;;
38132;SDS011;23948;43.252;26.572;2023-05-29T03:52:41;25.75;;;18.88;;
38132;SDS011;23948;43.252;26.572;2023-05-29T03:55:08;22.67;;;18.45;;
38132;SDS011;23948;43.252;26.572;2023-05-29T03:57:34;21.00;;;17.67;;
38132;SDS011;23948;43.252;26.572;2023-05-29T03:59:59;23.13;;;18.38;;
38132;SDS011;23948;43.252;26.572;2023-05-29T04:02:25;21.60;;;18.15;;
38132;SDS011;23948;43.252;26.572;2023-05-29T04:04:50;24.05;;;18.80;;
38132;SDS011;23948;43.252;26.572;2023-05-29T04:07:17;25.95;;;18.85;;
38132;SDS011;23948;43.252;26.572;2023-05-29T04:09:43;20.98;;;17.35;;
38132;SDS011;23948;43.252;26.572;2023-05-29T04:12:09;21.73;;;17.92;;
38132;SDS011;23948;43.252;26.572;2023-05-29T04:14:34;24.23;;;18.48;;
38132;SDS011;23948;43.252;26.572;2023-05-29T04:16:59;24.80;;;18.17;;
38132;SDS011;23948;43.252;26.572;2023-05-29T04:19:25;21.38;;;16.75;;
38132;SDS011;23948;43.252;26.572;2023-05-29T04:21:50;23.25;;;19.15;;
38132;SDS011;23948;43.252;26.572;2023-05-29T04:24:15;26.40;;;19.15;;
38132;SDS011;23948;43.252;26.572;2023-05-29T04:26:41;21.02;;;17.65;;
38132;SDS011;23948;43.252;26.572;2023-05-29T04:29:07;22.40;;;17.25;;
38132;SDS011;23948;43.252;26.572;2023-05-29T04:31:32;22.02;;;17.75;;
38132;SDS011;23948;43.252;26.572;2023-05-29T04:33:58;20.92;;;17.05;;
38132;SDS011;23948;43.252;26.572;2023-05-29T04:36:26;21.58;;;16.83;;
38132;SDS011;23948;43.252;26.572;2023-05-29T04:38:52;23.25;;;17.23;;
38132;SDS011;23948;43.252;26.572;2023-05-29T04:41:17;23.48;;;17.02;;
38132;SDS011;23948;43.252;26.572;2023-05-29T04:43:42;19.77;;;16.92;;
38132;SDS011;23948;43.252;26.572;2023-05-29T04:46:08;20.80;;;16.75;;
38132;SDS011;23948;43.252;26.572;2023-05-29T04:48:37;22.57;;;17.57;;
38132;SDS011;23948;43.252;26.572;2023-05-29T04:51:05;21.92;;;17.52;;
38132;SDS011;23948;43.252;26.572;2023-05-29T04:53:30;22.25;;;17.60;;
38132;SDS011;23948;43.252;26.572;2023-05-29T04:56:16;19.40;;;16.73;;
38132;SDS011;23948;43.252;26.572;2023-05-29T04:58:41;28.05;;;17.83;;
38132;SDS011;23948;43.252;26.572;2023-05-29T05:01:07;23.20;;;16.50;;
38132;SDS011;23948;43.252;26.572;2023-05-29T05:03:34;22.10;;;16.95;;
38132;SDS011;23948;43.252;26.572;2023-05-29T05:06:02;21.67;;;16.92;;
38132;SDS011;23948;43.252;26.572;2023-05-29T05:08:28;19.65;;;15.82;;
38132;SDS011;23948;43.252;26.572;2023-05-29T05:10:54;18.85;;;16.33;;
38132;SDS011;23948;43.252;26.572;2023-05-29T05:13:19;19.40;;;15.73;;
38132;SDS011;23948;43.252;26.572;2023-05-29T05:15:45;21.05;;;16.45;;
38132;SDS011;23948;43.252;26.572;2023-05-29T05:18:10;17.92;;;14.98;;
38132;SDS011;23948;43.252;26.572;2023-05-29T05:20:35;22.65;;;16.63;;
38132;SDS011;23948;43.252;26.572;2023-05-29T05:23:09;20.70;;;16.10;;
38132;SDS011;23948;43.252;26.572;2023-05-29T05:25:35;17.83;;;15.15;;
38132;SDS011;23948;43.252;26.572;2023-05-29T05:28:01;17.73;;;14.60;;
38132;SDS011;23948;43.252;26.572;2023-05-29T05:30:28;20.20;;;14.77;;
38132;SDS011;23948;43.252;26.572;2023-05-29T05:32:54;20.52;;;15.10;;
38132;SDS011;23948;43.252;26.572;2023-05-29T05:35:19;24.13;;;14.50;;
38132;SDS011;23948;43.252;26.572;2023-05-29T05:37:45;19.58;;;16.98;;
38132;SDS011;23948;43.252;26.572;2023-05-29T05:40:10;45.00;;;33.08;;
38132;SDS011;23948;43.252;26.572;2023-05-29T05:42:35;24.45;;;19.40;;
38132;SDS011;23948;43.252;26.572;2023-05-29T05:45:01;42.17;;;19.38;;
38132;SDS011;23948;43.252;26.572;2023-05-29T05:47:26;47.88;;;20.00;;
38132;SDS011;23948;43.252;26.572;2023-05-29T05:49:53;27.13;;;17.45;;
38132;SDS011;23948;43.252;26.572;2023-05-29T05:52:18;23.58;;;15.32;;
38132;SDS011;23948;43.252;26.572;2023-05-29T05:54:44;20.77;;;18.58;;
38132;SDS011;23948;43.252;26.572;2023-05-29T05:57:10;18.95;;;14.73;;
38132;SDS011;23948;43.252;26.572;2023-05-29T05:59:35;19.08;;;14.43;;
38132;SDS011;23948;43.252;26.572;2023-05-29T06:02:01;20.85;;;14.60;;
38132;SDS011;23948;43.252;26.572;2023-05-29T06:04:26;22.17;;;14.40;;
38132;SDS011;23948;43.252;26.572;2023-05-29T06:06:52;19.35;;;14.18;;
38132;SDS011;23948;43.252;26.572;2023-05-29T06:09:17;18.65;;;13.60;;
38132;SDS011;23948;43.252;26.572;2023-05-29T06:11:42;17.35;;;14.43;;
38132;SDS011;23948;43.252;26.572;2023-05-29T06:14:08;18.83;;;13.00;;
38132;SDS011;23948;43.252;26.572;2023-05-29T06:16:33;17.38;;;13.32;;
38132;SDS011;23948;43.252;26.572;2023-05-29T06:18:59;19.50;;;13.90;;
38132;SDS011;23948;43.252;26.572;2023-05-29T06:21:25;17.67;;;13.82;;
38132;SDS011;23948;43.252;26.572;2023-05-29T06:23:50;19.05;;;14.50;;
38132;SDS011;23948;43.252;26.572;2023-05-29T06:26:16;17.27;;;13.88;;
38132;SDS011;23948;43.252;26.572;2023-05-29T06:28:41;17.17;;;14.10;;
38132;SDS011;23948;43.252;26.572;2023-05-29T06:31:06;15.45;;;13.85;;
38132;SDS011;23948;43.252;26.572;2023-05-29T06:33:32;16.42;;;13.25;;
38132;SDS011;23948;43.252;26.572;2023-05-29T06:35:57;18.70;;;14.20;;
38132;SDS011;23948;43.252;26.572;2023-05-29T06:38:24;20.40;;;13.75;;
38132;SDS011;23948;43.252;26.572;2023-05-29T06:40:49;17.88;;;13.10;;
38132;SDS011;23948;43.252;26.572;2023-05-29T06:43:14;17.80;;;13.32;;
38132;SDS011;23948;43.252;26.572;2023-05-29T06:45:40;17.10;;;14.63;;
38132;SDS011;23948;43.252;26.572;2023-05-29T06:48:05;16.73;;;13.13;;
38132;SDS011;23948;43.252;26.572;2023-05-29T06:50:31;17.10;;;12.35;;
38132;SDS011;23948;43.252;26.572;2023-05-29T06:52:59;19.17;;;12.45;;
38132;SDS011;23948;43.252;26.572;2023-05-29T06:55:24;17.30;;;12.43;;
38132;SDS011;23948;43.252;26.572;2023-05-29T06:57:50;18.73;;;12.95;;
38132;SDS011;23948;43.252;26.572;2023-05-29T07:00:15;15.52;;;12.25;;
38132;SDS011;23948;43.252;26.572;2023-05-29T07:02:41;16.33;;;11.90;;
38132;SDS011;23948;43.252;26.572;2023-05-29T07:05:06;14.68;;;10.90;;
38132;SDS011;23948;43.252;26.572;2023-05-29T07:07:31;18.17;;;12.05;;
38132;SDS011;23948;43.252;26.572;2023-05-29T07:09:57;15.20;;;12.13;;
38132;SDS011;23948;43.252;26.572;2023-05-29T07:12:22;15.23;;;11.50;;
38132;SDS011;23948;43.252;26.572;2023-05-29T07:14:48;14.40;;;11.73;;
38132;SDS011;23948;43.252;26.572;2023-05-29T07:17:13;20.70;;;16.63;;
38132;SDS011;23948;43.252;26.572;2023-05-29T07:19:39;24.80;;;12.02;;
38132;SDS011;23948;43.252;26.572;2023-05-29T07:22:04;16.88;;;11.05;;
38132;SDS011;23948;43.252;26.572;2023-05-29T07:24:30;13.07;;;10.55;;
38132;SDS011;23948;43.252;26.572;2023-05-29T07:26:55;14.27;;;9.68;;
38132;SDS011;23948;43.252;26.572;2023-05-29T07:29:20;13.57;;;10.73;;
38132;SDS011;23948;43.252;26.572;2023-05-29T07:31:48;15.38;;;11.15;;
38132;SDS011;23948;43.252;26.572;2023-05-29T07:34:13;14.75;;;11.45;;
38132;SDS011;23948;43.252;26.572;2023-05-29T07:36:55;14.38;;;10.93;;
38132;SDS011;23948;43.252;26.572;2023-05-29T07:39:21;15.70;;;10.32;;
38132;SDS011;23948;43.252;26.572;2023-05-29T07:41:46;15.10;;;10.20;;
38132;SDS011;23948;43.252;26.572;2023-05-29T07:44:11;13.85;;;10.43;;
38132;SDS011;23948;43.252;26.572;2023-05-29T07:46:36;15.02;;;10.00;;
38132;SDS011;23948;43.252;26.572;2023-05-29T07:49:02;19.83;;;10.57;;
38132;SDS011;23948;43.252;26.572;2023-05-29T07:51:27;17.13;;;11.05;;
38132;SDS011;23948;43.252;26.572;2023-05-29T07:53:52;15.32;;;11.38;;
38132;SDS011;23948;43.252;26.572;2023-05-29T07:56:18;19.83;;;13.18;;
38132;SDS011;23948;43.252;26.572;2023-05-29T07:58:43;17.25;;;12.45;;
38132;SDS011;23948;43.252;26.572;2023-05-29T08:01:08;21.55;;;13.25;;
38132;SDS011;23948;43.252;26.572;2023-05-29T08:03:33;19.90;;;13.50;;
38132;SDS011;23948;43.252;26.572;2023-05-29T08:05:59;17.90;;;13.13;;
38132;SDS011;23948;43.252;26.572;2023-05-29T08:08:24;17.38;;;14.30;;
38132;SDS011;23948;43.252;26.572;2023-05-29T08:10:49;19.40;;;14.60;;
38132;SDS011;23948;43.252;26.572;2023-05-29T08:13:14;19.83;;;14.40;;
38132;SDS011;23948;43.252;26.572;2023-05-29T08:15:40;18.75;;;15.02;;
38132;SDS011;23948;43.252;26.572;2023-05-29T08:18:05;21.17;;;14.52;;
38132;SDS011;23948;43.252;26.572;2023-05-29T08:20:31;17.08;;;13.82;;
38132;SDS011;23948;43.252;26.572;2023-05-29T08:22:57;16.75;;;13.38;;
38132;SDS011;23948;43.252;26.572;2023-05-29T08:25:22;16.67;;;13.70;;
38132;SDS011;23948;43.252;26.572;2023-05-29T08:27:47;17.02;;;13.90;;
38132;SDS011;23948;43.252;26.572;2023-05-29T08:30:12;20.75;;;14.38;;
38132;SDS011;23948;43.252;26.572;2023-05-29T08:32:38;16.45;;;14.45;;
38132;SDS011;23948;43.252;26.572;2023-05-29T08:35:03;15.27;;;13.60;;
38132;SDS011;23948;43.252;26.572;2023-05-29T08:37:29;22.60;;;16.83;;
38132;SDS011;23948;43.252;26.572;2023-05-29T08:39:54;21.92;;;14.80;;
38132;SDS011;23948;43.252;26.572;2023-05-29T08:42:29;18.58;;;15.52;;
38132;SDS011;23948;43.252;26.572;2023-05-29T08:44:58;22.30;;;15.98;;
38132;SDS011;23948;43.252;26.572;2023-05-29T08:47:26;22.10;;;16.27;;
38132;SDS011;23948;43.252;26.572;2023-05-29T08:49:52;23.58;;;16.75;;
38132;SDS011;23948;43.252;26.572;2023-05-29T08:52:24;19.08;;;15.00;;
38132;SDS011;23948;43.252;26.572;2023-05-29T08:54:52;18.58;;;15.82;;
38132;SDS011;23948;43.252;26.572;2023-05-29T08:57:18;21.05;;;16.52;;
38132;SDS011;23948;43.252;26.572;2023-05-29T08:59:45;24.25;;;15.95;;
38132;SDS011;23948;43.252;26.572;2023-05-29T09:02:11;22.48;;;15.75;;
38132;SDS011;23948;43.252;26.572;2023-05-29T09:04:37;21.08;;;16.10;;
38132;SDS011;23948;43.252;26.572;2023-05-29T09:07:02;18.10;;;15.65;;
38132;SDS011;23948;43.252;26.572;2023-05-29T09:09:28;23.23;;;19.42;;
38132;SDS011;23948;43.252;26.572;2023-05-29T09:11:54;20.27;;;18.23;;
38132;SDS011;23948;43.252;26.572;2023-05-29T09:14:40;22.33;;;18.30;;
38132;SDS011;23948;43.252;26.572;2023-05-29T09:17:07;22.10;;;18.98;;
38132;SDS011;23948;43.252;26.572;2023-05-29T09:19:33;22.27;;;19.75;;
38132;SDS011;23948;43.252;26.572;2023-05-29T09:22:05;25.77;;;18.83;;
38132;SDS011;23948;43.252;26.572;2023-05-29T09:24:34;23.33;;;19.45;;
38132;SDS011;23948;43.252;26.572;2023-05-29T09:27:00;20.75;;;18.20;;
38132;SDS011;23948;43.252;26.572;2023-05-29T09:29:26;25.63;;;19.85;;
38132;SDS011;23948;43.252;26.572;2023-05-29T09:31:51;27.38;;;21.70;;
38132;SDS011;23948;43.252;26.572;2023-05-29T09:34:17;25.08;;;22.33;;
38132;SDS011;23948;43.252;26.572;2023-05-29T09:36:42;25.52;;;18.92;;
38132;SDS011;23948;43.252;26.572;2023-05-29T09:39:07;20.95;;;18.77;;
38132;SDS011;23948;43.252;26.572;2023-05-29T09:41:42;22.88;;;19.10;;
38132;SDS011;23948;43.252;26.572;2023-05-29T09:44:07;23.35;;;18.45;;
38132;SDS011;23948;43.252;26.572;2023-05-29T09:46:35;21.27;;;18.60;;
38132;SDS011;23948;43.252;26.572;2023-05-29T09:49:01;25.63;;;17.38;;
38132;SDS011;23948;43.252;26.572;2023-05-29T09:51:28;17.67;;;14.93;;
38132;SDS011;23948;43.252;26.572;2023-05-29T09:53:54;16.60;;;13.88;;
38132;SDS011;23948;43.252;26.572;2023-05-29T09:56:22;20.05;;;14.65;;
38132;SDS011;23948;43.252;26.572;2023-05-29T09:58:47;15.52;;;12.05;;
38132;SDS011;23948;43.252;26.572;2023-05-29T10:01:14;13.20;;;11.00;;
38132;SDS011;23948;43.252;26.572;2023-05-29T10:03:42;17.48;;;11.45;;
38132;SDS011;23948;43.252;26.572;2023-05-29T10:06:08;11.82;;;9.57;;
38132;SDS011;23948;43.252;26.572;2023-05-29T10:08:37;10.57;;;8.70;;
38132;SDS011;23948;43.252;26.572;2023-05-29T10:11:03;11.40;;;8.63;;
38132;SDS011;23948;43.252;26.572;2023-05-29T10:13:34;13.57;;;9.88;;
38132;SDS011;23948;43.252;26.572;2023-05-29T10:16:01;12.10;;;9.45;;
38132;SDS011;23948;43.252;26.572;2023-05-29T10:18:38;10.55;;;8.00;;
38132;SDS011;23948;43.252;26.572;2023-05-29T10:21:04;13.05;;;6.90;;
38132;SDS011;23948;43.252;26.572;2023-05-29T10:23:31;10.82;;;7.28;;
38132;SDS011;23948;43.252;26.572;2023-05-29T10:25:58;7.95;;;6.20;;
38132;SDS011;23948;43.252;26.572;2023-05-29T10:28:29;10.10;;;6.82;;
38132;SDS011;23948;43.252;26.572;2023-05-29T10:31:13;11.25;;;6.18;;
38132;SDS011;23948;43.252;26.572;2023-05-29T10:33:50;13.55;;;6.80;;
38132;SDS011;23948;43.252;26.572;2023-05-29T10:36:20;9.10;;;6.25;;
38132;SDS011;23948;43.252;26.572;2023-05-29T10:38:47;7.85;;;5.72;;
38132;SDS011;23948;43.252;26.572;2023-05-29T10:43:59;11.32;;;7.07;;
38132;SDS011;23948;43.252;26.572;2023-05-29T10:49:19;8.35;;;5.72;;
38132;SDS011;23948;43.252;26.572;2023-05-29T10:51:44;8.45;;;5.60;;
38132;SDS011;23948;43.252;26.572;2023-05-29T10:54:10;16.33;;;5.57;;
38132;SDS011;23948;43.252;26.572;2023-05-29T10:56:36;108.25;;;15.43;;
38132;SDS011;23948;43.252;26.572;2023-05-29T10:59:01;33.67;;;7.75;;
38132;SDS011;23948;43.252;26.572;2023-05-29T11:01:28;11.88;;;4.45;;
38132;SDS011;23948;43.252;26.572;2023-05-29T11:03:54;11.30;;;4.43;;
38132;SDS011;23948;43.252;26.572;2023-05-29T11:06:38;9.57;;;4.93;;
38132;SDS011;23948;43.252;26.572;2023-05-29T11:09:04;8.77;;;4.60;;
38132;SDS011;23948;43.252;26.572;2023-05-29T11:11:33;8.13;;;4.35;;
38132;SDS011;23948;43.252;26.572;2023-05-29T11:14:02;7.50;;;4.15;;
38132;SDS011;23948;43.252;26.572;2023-05-29T11:18:58;10.43;;;4.00;;
38132;SDS011;23948;43.252;26.572;2023-05-29T11:24:04;8.13;;;4.60;;
38132;SDS011;23948;43.252;26.572;2023-05-29T11:26:33;7.32;;;3.90;;
38132;SDS011;23948;43.252;26.572;2023-05-29T11:29:07;7.90;;;3.67;;
38132;SDS011;23948;43.252;26.572;2023-05-29T11:31:35;12.35;;;3.33;;
38132;SDS011;23948;43.252;26.572;2023-05-29T11:34:02;9.38;;;3.67;;
38132;SDS011;23948;43.252;26.572;2023-05-29T11:36:32;6.03;;;3.15;;
38132;SDS011;23948;43.252;26.572;2023-05-29T11:38:58;7.20;;;3.53;;
38132;SDS011;23948;43.252;26.572;2023-05-29T11:41:23;6.63;;;3.40;;
38132;SDS011;23948;43.252;26.572;2023-05-29T11:43:55;8.73;;;3.03;;
38132;SDS011;23948;43.252;26.572;2023-05-29T11:46:21;7.85;;;3.30;;
38132;SDS011;23948;43.252;26.572;2023-05-29T11:48:46;6.63;;;3.10;;
38132;SDS011;23948;43.252;26.572;2023-05-29T11:51:12;6.60;;;3.10;;
38132;SDS011;23948;43.252;26.572;2023-05-29T11:53:40;6.28;;;3.20;;
38132;SDS011;23948;43.252;26.572;2023-05-29T11:56:06;8.95;;;3.65;;
38132;SDS011;23948;43.252;26.572;2023-05-29T11:58:31;6.65;;;3.50;;
38132;SDS011;23948;43.252;26.572;2023-05-29T12:00:57;11.05;;;3.58;;
38132;SDS011;23948;43.252;26.572;2023-05-29T12:03:22;7.20;;;3.55;;
38132;SDS011;23948;43.252;26.572;2023-05-29T12:05:48;6.97;;;3.80;;
38132;SDS011;23948;43.252;26.572;2023-05-29T12:08:14;9.10;;;4.43;;
38132;SDS011;23948;43.252;26.572;2023-05-29T12:10:49;8.55;;;4.13;;
38132;SDS011;23948;43.252;26.572;2023-05-29T12:13:14;7.30;;;4.35;;
38132;SDS011;23948;43.252;26.572;2023-05-29T12:15:42;9.90;;;4.43;;
38132;SDS011;23948;43.252;26.572;2023-05-29T12:18:07;9.77;;;4.97;;
38132;SDS011;23948;43.252;26.572;2023-05-29T12:20:33;11.23;;;4.70;;
38132;SDS011;23948;43.252;26.572;2023-05-29T12:22:59;6.78;;;4.97;;
38132;SDS011;23948;43.252;26.572;2023-05-29T12:25:25;8.10;;;4.70;;
38132;SDS011;23948;43.252;26.572;2023-05-29T12:27:51;8.43;;;4.85;;
38132;SDS011;23948;43.252;26.572;2023-05-29T12:32:43;9.20;;;4.70;;
38132;SDS011;23948;43.252;26.572;2023-05-29T12:35:24;11.77;;;4.85;;
38132;SDS011;23948;43.252;26.572;2023-05-29T12:38:00;8.77;;;4.35;;
38132;SDS011;23948;43.252;26.572;2023-05-29T12:40:27;8.02;;;4.50;;
38132;SDS011;23948;43.252;26.572;2023-05-29T12:42:59;9.98;;;4.65;;
38132;SDS011;23948;43.252;26.572;2023-05-29T12:45:26;7.85;;;4.18;;
38132;SDS011;23948;43.252;26.572;2023-05-29T12:47:55;7.55;;;4.10;;
38132;SDS011;23948;43.252;26.572;2023-05-29T12:50:25;8.98;;;4.07;;
38132;SDS011;23948;43.252;26.572;2023-05-29T12:55:25;10.57;;;4.40;;
38132;SDS011;23948;43.252;26.572;2023-05-29T12:57:51;8.80;;;4.10;;
38132;SDS011;23948;43.252;26.572;2023-05-29T13:00:16;9.65;;;4.82;;
38132;SDS011;23948;43.252;26.572;2023-05-29T13:02:42;6.75;;;4.57;;
38132;SDS011;23948;43.252;26.572;2023-05-29T13:05:08;8.50;;;4.65;;
38132;SDS011;23948;43.252;26.572;2023-05-29T13:07:33;8.27;;;4.88;;
38132;SDS011;23948;43.252;26.572;2023-05-29T13:09:59;10.77;;;4.93;;
38132;SDS011;23948;43.252;26.572;2023-05-29T13:12:24;8.23;;;4.85;;
38132;SDS011;23948;43.252;26.572;2023-05-29T13:14:50;10.73;;;5.05;;
38132;SDS011;23948;43.252;26.572;2023-05-29T13:17:15;8.07;;;4.90;;
38132;SDS011;23948;43.252;26.572;2023-05-29T13:19:40;8.13;;;4.90;;
38132;SDS011;23948;43.252;26.572;2023-05-29T13:22:06;10.32;;;5.28;;
38132;SDS011;23948;43.252;26.572;2023-05-29T13:24:32;7.53;;;4.85;;
38132;SDS011;23948;43.252;26.572;2023-05-29T13:26:57;14.65;;;5.82;;
38132;SDS011;23948;43.252;26.572;2023-05-29T13:29:22;9.60;;;5.20;;
38132;SDS011;23948;43.252;26.572;2023-05-29T13:31:48;7.65;;;5.20;;
38132;SDS011;23948;43.252;26.572;2023-05-29T13:34:13;7.20;;;5.30;;
38132;SDS011;23948;43.252;26.572;2023-05-29T13:36:38;9.68;;;5.53;;
38132;SDS011;23948;43.252;26.572;2023-05-29T13:39:04;9.70;;;5.10;;
38132;SDS011;23948;43.252;26.572;2023-05-29T13:41:30;11.73;;;5.85;;
38132;SDS011;23948;43.252;26.572;2023-05-29T13:43:55;8.57;;;4.95;;
38132;SDS011;23948;43.252;26.572;2023-05-29T13:46:21;8.77;;;4.70;;
38132;SDS011;23948;43.252;26.572;2023-05-29T13:48:46;6.88;;;4.93;;
38132;SDS011;23948;43.252;26.572;2023-05-29T13:51:11;9.73;;;4.90;;
38132;SDS011;23948;43.252;26.572;2023-05-29T13:53:37;6.53;;;4.65;;
38132;SDS011;23948;43.252;26.572;2023-05-29T13:56:03;11.25;;;5.28;;
38132;SDS011;23948;43.252;26.572;2023-05-29T13:58:28;6.95;;;4.90;;
38132;SDS011;23948;43.252;26.572;2023-05-29T14:00:53;7.57;;;5.43;;
38132;SDS011;23948;43.252;26.572;2023-05-29T14:03:19;10.63;;;5.25;;
38132;SDS011;23948;43.252;26.572;2023-05-29T14:05:46;9.13;;;5.82;;
38132;SDS011;23948;43.252;26.572;2023-05-29T14:08:11;9.98;;;5.63;;
38132;SDS011;23948;43.252;26.572;2023-05-29T14:10:37;8.82;;;5.78;;
38132;SDS011;23948;43.252;26.572;2023-05-29T14:13:02;9.18;;;5.93;;
38132;SDS011;23948;43.252;26.572;2023-05-29T14:15:27;11.45;;;6.53;;
38132;SDS011;23948;43.252;26.572;2023-05-29T14:17:52;8.80;;;6.05;;
38132;SDS011;23948;43.252;26.572;2023-05-29T14:20:18;14.27;;;7.15;;
38132;SDS011;23948;43.252;26.572;2023-05-29T14:22:43;8.10;;;6.80;;
38132;SDS011;23948;43.252;26.572;2023-05-29T14:25:08;9.15;;;7.30;;
38132;SDS011;23948;43.252;26.572;2023-05-29T14:27:34;10.80;;;6.88;;
38132;SDS011;23948;43.252;26.572;2023-05-29T14:29:59;8.30;;;6.40;;
38132;SDS011;23948;43.252;26.572;2023-05-29T14:32:25;9.80;;;6.50;;
38132;SDS011;23948;43.252;26.572;2023-05-29T14:34:50;7.40;;;5.85;;